createdAt,value
2023-01-30T00:04:11.766Z,1031.6
2023-01-30T00:09:41.317Z,1031.5
2023-01-30T00:14:55.658Z,1031.4
2023-01-30T00:20:27.049Z,1031.5
2023-01-30T00:26:14.256Z,1031.6
2023-01-30T00:31:35.787Z,1031.6
2023-01-30T00:37:24.297Z,1031.6
2023-01-30T00:42:46.230Z,1031.6
2023-01-30T00:48:29.006Z,1031.5
2023-01-30T00:54:01.079Z,1031.4
2023-01-30T00:59:19.746Z,1031.4
2023-01-30T01:05:08.629Z,1031.4
2023-01-30T01:10:41.378Z,1031.4
2023-01-30T01:16:09.462Z,1031.4
2023-01-30T01:21:52.075Z,1031.4
2023-01-30T01:27:05.994Z,1031.6
2023-01-30T01:32:32.530Z,1031.5
2023-01-30T01:38:23.229Z,1031.5
2023-01-30T01:43:54.465Z,1031.6
2023-01-30T01:49:12.416Z,1031.5
2023-01-30T01:54:55.236Z,1031.3
2023-01-30T02:00:33.372Z,1031.5
2023-01-30T02:06:11.269Z,1031.6
2023-01-30T02:11:28.383Z,1031.6
2023-01-30T02:17:16.137Z,1031.7
2023-01-30T02:22:33.740Z,1031.7
2023-01-30T02:28:14.035Z,1031.6
2023-01-30T02:33:43.517Z,1031.5
2023-01-30T02:38:59.214Z,1031.5
2023-01-30T02:44:48.979Z,1031.9
2023-01-30T02:50:26.010Z,1032
2023-01-30T02:55:39.904Z,1032.3
2023-01-30T03:01:12.590Z,1032.1
2023-01-30T03:06:58.559Z,1032.2
2023-01-30T03:18:09.984Z,1032.3
2023-01-30T03:23:26.607Z,1032.4
2023-01-30T03:29:10.832Z,1032.4
2023-01-30T03:34:43.340Z,1032.3
2023-01-30T03:40:10.389Z,1032.2
2023-01-30T03:45:48.133Z,1032.4
2023-01-30T03:51:29.707Z,1032.4
2023-01-30T03:56:45.763Z,1032.4
2023-01-30T04:02:22.895Z,1032.5
2023-01-30T04:07:57.389Z,1032.4
2023-01-30T04:13:22.457Z,1032.5
2023-01-30T04:18:57.531Z,1032.5
2023-01-30T04:24:42.271Z,1032.6
2023-01-30T04:30:03.737Z,1032.6
2023-01-30T04:35:46.145Z,1032.4
2023-01-30T04:41:15.957Z,1032.6
2023-01-30T04:46:29.690Z,1032.4
2023-01-30T04:52:17.291Z,1032.2
2023-01-30T04:57:55.027Z,1032.2
2023-01-30T05:03:07.337Z,1032.1
2023-01-30T05:08:55.630Z,1032
2023-01-30T05:14:24.303Z,1032.2
2023-01-30T05:31:07.354Z,1031.9
2023-01-30T05:36:41.347Z,1032
2023-01-30T05:42:19.895Z,1032
2023-01-30T05:47:41.880Z,1032
2023-01-30T05:53:05.908Z,1032
2023-01-30T05:58:54.149Z,1032
2023-01-30T06:04:01.837Z,1032
2023-01-30T06:09:35.706Z,1032.1
2023-01-30T06:15:29.557Z,1032.1
2023-01-30T06:20:52.718Z,1031.9
2023-01-30T06:26:36.101Z,1031.9
2023-01-30T06:32:09.743Z,1031.9
2023-01-30T06:37:42.986Z,1031.7
2023-01-30T06:43:11.939Z,1031.6
2023-01-30T06:48:41.647Z,1031.7
2023-01-30T06:54:15.799Z,1031.6
2023-01-30T06:59:49.156Z,1032.3
2023-01-30T07:05:14.075Z,1032.4
2023-01-30T07:10:39.145Z,1032.4
2023-01-30T07:16:05.457Z,1032.4
2023-01-30T07:22:05.417Z,1032.6
2023-01-30T07:27:09.909Z,1032.6
2023-01-30T07:32:58.050Z,1032.6
2023-01-30T07:38:23.984Z,1032.7
2023-01-30T07:43:46.171Z,1032.6
2023-01-30T07:49:30.001Z,1032.6
2023-01-30T07:55:04.621Z,1032.7
2023-01-30T08:00:28.151Z,1032.4
2023-01-30T08:06:21.792Z,1032.2
2023-01-30T08:11:53.988Z,1032.3
2023-01-30T08:17:29.131Z,1032.5
2023-01-30T08:22:50.540Z,1032.5
2023-01-30T08:28:11.293Z,1032.4
2023-01-30T08:33:46.907Z,1032.1
2023-01-30T08:39:25.943Z,1032
2023-01-30T08:44:54.798Z,1032.1
2023-01-30T08:50:38.896Z,1032.4
2023-01-30T08:56:07.627Z,1032.2
2023-01-30T09:01:37.065Z,1032.2
2023-01-30T09:07:15.387Z,1032
2023-01-30T09:12:55.791Z,1031.9
2023-01-30T09:18:17.616Z,1031.6
2023-01-30T09:24:06.735Z,1031.5
2023-01-30T09:29:35.969Z,1031.7
2023-01-30T09:35:16.960Z,1031.6
2023-01-30T09:40:22.571Z,1031.5
2023-01-30T09:46:03.391Z,1032
2023-01-30T09:51:43.505Z,1031.6
2023-01-30T09:57:20.278Z,1031.8
2023-01-30T10:03:03.287Z,1031.9
2023-01-30T10:08:34.377Z,1031.6
2023-01-30T10:13:48.330Z,1031.4
2023-01-30T10:19:36.362Z,1031.4
2023-01-30T10:25:15.058Z,1031.4
2023-01-30T10:30:31.168Z,1031.4
2023-01-30T10:36:22.881Z,1031.5
2023-01-30T10:41:59.930Z,1031.5
2023-01-30T10:47:25.295Z,1031.6
2023-01-30T10:53:09.063Z,1031.6
2023-01-30T10:58:44.145Z,1031.4
2023-01-30T11:04:06.331Z,1031.2
2023-01-30T11:09:55.220Z,1031.1
2023-01-30T11:15:21.143Z,1031.2
2023-01-30T11:20:39.989Z,1031
2023-01-30T11:32:03.524Z,1031
2023-01-30T11:37:40.975Z,1030.8
2023-01-30T11:42:54.338Z,1030.6
2023-01-30T11:49:01.947Z,1030.6
2023-01-30T11:54:04.416Z,1030.6
2023-01-30T11:59:33.085Z,1030.3
2023-01-30T12:05:13.601Z,1030
2023-01-30T12:10:45.435Z,1030.1
2023-01-30T12:16:22.213Z,1030.2
2023-01-30T12:22:10.853Z,1029.8
2023-01-30T12:27:40.291Z,1029.9
2023-01-30T12:33:11.357Z,1029.5
2023-01-30T12:38:44.855Z,1029.4
2023-01-30T12:44:26.621Z,1029.2
2023-01-30T12:49:57.271Z,1029.2
2023-01-30T13:01:04.572Z,1029.3
2023-01-30T13:06:47.794Z,1029.3
2023-01-30T13:12:04.785Z,1029.1
2023-01-30T13:17:34.706Z,1029
2023-01-30T13:23:07.219Z,1029.2
2023-01-30T13:28:43.126Z,1029.2
2023-01-30T13:34:39.788Z,1029.1
2023-01-30T13:40:05.737Z,1028.9
2023-01-30T13:45:28.469Z,1028.9
2023-01-30T13:51:05.932Z,1028.9
2023-01-30T13:56:54.995Z,1028.7
2023-01-30T14:02:33.993Z,1028.9
2023-01-30T14:08:02.404Z,1029.1
2023-01-30T14:13:33.080Z,1029.1
2023-01-30T14:19:00.712Z,1029.1
2023-01-30T14:24:22.698Z,1029.1
2023-01-30T14:30:07.483Z,1029.1
2023-01-30T14:35:41.222Z,1029
2023-01-30T14:41:10.334Z,1029.1
2023-01-30T14:47:32.495Z,1029.1
2023-01-30T14:52:19.587Z,1029.1
2023-01-30T14:58:03.219Z,1029.1
2023-01-30T15:03:18.275Z,1029.2
2023-01-30T15:08:55.856Z,1029.3
2023-01-30T15:14:53.970Z,1029.3
2023-01-30T15:20:23.581Z,1029.5
2023-01-30T15:25:47.247Z,1029.5
2023-01-30T15:31:13.263Z,1029.5
2023-01-30T15:36:44.637Z,1029.6
2023-01-30T15:42:30.501Z,1029.6
2023-01-30T15:48:05.839Z,1029.6
2023-01-30T15:53:35.079Z,1029.5
2023-01-30T15:58:57.703Z,1029.5
2023-01-30T16:04:47.479Z,1029.6
2023-01-30T16:10:24.221Z,1029.6
2023-01-30T16:15:53.188Z,1029.7
2023-01-30T16:21:12.143Z,1029.9
2023-01-30T16:27:04.151Z,1030
2023-01-30T16:32:33.947Z,1030
2023-01-30T16:37:48.542Z,1030.1
2023-01-30T16:43:45.383Z,1030.2
2023-01-30T16:49:10.155Z,1030.3
2023-01-30T16:54:43.851Z,1030.4
2023-01-30T17:00:08.635Z,1030.5
2023-01-30T17:05:35.892Z,1030.6
2023-01-30T17:11:09.773Z,1030.6
2023-01-30T17:16:50.669Z,1030.7
2023-01-30T17:22:22.923Z,1030.7
2023-01-30T17:28:03.026Z,1030.8
2023-01-30T17:33:21.428Z,1030.9
2023-01-30T17:39:05.619Z,1031.2
2023-01-30T17:44:47.798Z,1031.3
2023-01-30T17:50:01.702Z,1031.4
2023-01-30T17:55:36.566Z,1031.5
2023-01-30T18:01:24.399Z,1031.6
2023-01-30T18:07:05.219Z,1031.7
2023-01-30T18:12:22.611Z,1031.8
2023-01-30T18:17:50.541Z,1032
2023-01-30T18:23:41.109Z,1032
2023-01-30T18:28:54.251Z,1032
2023-01-30T18:34:45.812Z,1032.1
2023-01-30T18:39:59.806Z,1032
2023-01-30T18:45:40.080Z,1032.2
2023-01-30T18:51:28.903Z,1032.2
2023-01-30T18:57:00.007Z,1032.2
2023-01-30T19:02:32.875Z,1032.2
2023-01-30T19:08:00.174Z,1032
2023-01-30T19:13:34.262Z,1031.9
2023-01-30T19:18:59.514Z,1032
2023-01-30T19:24:44.101Z,1032.1
2023-01-30T19:30:13.609Z,1032.2
2023-01-30T19:35:33.485Z,1032.1
2023-01-30T19:41:22.724Z,1032.1
2023-01-30T19:46:59.046Z,1032
2023-01-30T19:52:07.989Z,1032.1
2023-01-30T19:57:56.755Z,1032
2023-01-30T20:03:29.303Z,1032.3
2023-01-30T20:09:11.269Z,1032.6
2023-01-30T20:14:35.334Z,1032.4
2023-01-30T20:19:59.358Z,1032.3
2023-01-30T20:25:46.514Z,1032.4
2023-01-30T20:31:08.947Z,1032.4
2023-01-30T20:36:41.871Z,1032.3
2023-01-30T20:42:03.680Z,1032.4
2023-01-30T20:47:48.990Z,1032.3
2023-01-30T20:53:20.468Z,1032.4
2023-01-30T20:58:41.115Z,1032.6
2023-01-30T21:04:24.503Z,1032.7
2023-01-30T21:10:15.033Z,1032.6
2023-01-30T21:15:40.983Z,1032.6
2023-01-30T21:21:14.748Z,1032.7
2023-01-30T21:26:27.823Z,1032.6
2023-01-30T21:32:04.019Z,1032.8
2023-01-30T21:37:48.998Z,1032.7
2023-01-30T21:43:06.200Z,1032.8
2023-01-30T21:48:46.512Z,1032.8
2023-01-30T21:54:26.293Z,1032.8
2023-01-30T21:59:55.520Z,1032.9
2023-01-30T22:05:27.168Z,1032.8
2023-01-30T22:11:16.405Z,1032.8
2023-01-30T22:16:42.678Z,1032.8
2023-01-30T22:22:10.745Z,1032.9
2023-01-30T22:27:53.349Z,1033
2023-01-30T22:33:02.572Z,1033.1
2023-01-30T22:38:39.792Z,1033.2
2023-01-30T22:44:34.556Z,1033.2
2023-01-30T22:49:41.436Z,1033.1
2023-01-30T22:55:18.845Z,1033.2
2023-01-30T23:00:54.846Z,1033.3
2023-01-30T23:06:26.998Z,1033.4
2023-01-30T23:12:16.995Z,1033.3
2023-01-30T23:17:36.937Z,1033.4
2023-01-30T23:23:22.272Z,1033.4
2023-01-30T23:28:40.869Z,1033.3
2023-01-30T23:34:25.834Z,1033.4
2023-01-30T23:39:47.103Z,1033.4
2023-01-30T23:45:13.614Z,1033.3
2023-01-30T23:50:43.504Z,1033.3
2023-01-30T23:56:20.573Z,1033.3
